createdAt,value
2022-08-30T00:00:36.544Z,22.27
2022-08-30T00:03:06.950Z,22.28
2022-08-30T00:05:34.656Z,22.25
2022-08-30T00:08:01.735Z,22.24
2022-08-30T00:10:29.745Z,22.24
2022-08-30T00:12:58.168Z,22.22
2022-08-30T00:15:25.430Z,22.20
2022-08-30T00:17:52.029Z,22.19
2022-08-30T00:20:22.546Z,22.16
2022-08-30T00:22:49.061Z,22.13
2022-08-30T00:25:16.582Z,22.08
2022-08-30T00:27:43.748Z,22.02
2022-08-30T00:30:13.284Z,21.97
2022-08-30T00:32:40.525Z,21.93
2022-08-30T00:35:09.402Z,21.91
2022-08-30T00:37:36.123Z,21.91
2022-08-30T00:40:05.610Z,21.90
2022-08-30T00:42:33.076Z,21.89
2022-08-30T00:45:31.644Z,21.85
2022-08-30T00:47:59.401Z,21.83
2022-08-30T00:50:32.970Z,21.77
2022-08-30T00:53:01.999Z,21.72
2022-08-30T00:55:30.371Z,21.70
2022-08-30T00:58:02.324Z,21.67
2022-08-30T01:00:31.205Z,21.63
2022-08-30T01:02:58.152Z,21.60
2022-08-30T01:05:30.010Z,21.56
2022-08-30T01:07:56.526Z,21.52
2022-08-30T01:10:23.213Z,21.49
2022-08-30T01:12:49.909Z,21.47
2022-08-30T01:15:19.100Z,21.47
2022-08-30T01:17:47.847Z,21.47
2022-08-30T01:20:27.097Z,21.46
2022-08-30T01:22:53.549Z,21.43
2022-08-30T01:25:24.849Z,21.40
2022-08-30T01:28:01.678Z,21.38
2022-08-30T01:30:29.842Z,21.36
2022-08-30T01:32:59.465Z,21.35
2022-08-30T01:35:28.977Z,21.32
2022-08-30T01:37:56.286Z,21.31
2022-08-30T01:40:22.873Z,21.31
2022-08-30T01:42:50.166Z,21.29
2022-08-30T01:45:21.792Z,21.28
2022-08-30T01:47:50.623Z,21.31
2022-08-30T01:50:17.240Z,21.30
2022-08-30T01:52:43.841Z,21.32
2022-08-30T01:55:10.554Z,21.32
2022-08-30T01:57:37.102Z,21.30
2022-08-30T02:00:07.828Z,21.28
2022-08-30T02:02:38.498Z,21.27
2022-08-30T02:05:06.153Z,21.25
2022-08-30T02:07:32.698Z,21.23
2022-08-30T02:09:59.380Z,21.23
2022-08-30T02:12:25.978Z,21.21
2022-08-30T02:14:57.979Z,21.21
2022-08-30T02:17:24.644Z,21.17
2022-08-30T02:19:51.276Z,21.16
2022-08-30T02:22:18.206Z,21.14
2022-08-30T02:24:46.074Z,21.11
2022-08-30T02:27:12.641Z,21.08
2022-08-30T02:29:39.134Z,21.06
2022-08-30T02:32:05.996Z,21.02
2022-08-30T02:34:35.915Z,20.97
2022-08-30T02:37:02.450Z,20.96
2022-08-30T02:39:29.007Z,20.94
2022-08-30T02:41:55.639Z,20.92
2022-08-30T02:44:22.318Z,20.89
2022-08-30T02:46:48.959Z,20.87
2022-08-30T02:52:05.184Z,20.82
2022-08-30T02:54:33.477Z,20.84
2022-08-30T02:57:04.544Z,20.84
2022-08-30T02:59:31.569Z,20.87
2022-08-30T03:01:58.246Z,20.87
2022-08-30T03:04:26.906Z,20.87
2022-08-30T03:06:54.043Z,20.84
2022-08-30T03:09:20.548Z,20.84
2022-08-30T03:11:47.320Z,20.84
2022-08-30T03:14:13.832Z,20.83
2022-08-30T03:16:40.474Z,20.80
2022-08-30T03:19:07.010Z,20.78
2022-08-30T03:21:33.643Z,20.78
2022-08-30T03:24:01.494Z,20.77
2022-08-30T03:26:27.993Z,20.76
2022-08-30T03:28:54.534Z,20.74
2022-08-30T03:31:21.171Z,20.72
2022-08-30T03:33:50.654Z,20.70
2022-08-30T03:36:17.197Z,20.67
2022-08-30T03:38:43.764Z,20.63
2022-08-30T03:41:10.320Z,20.61
2022-08-30T03:43:41.190Z,20.57
2022-08-30T03:46:11.078Z,20.56
2022-08-30T03:48:37.657Z,20.54
2022-08-30T03:51:06.057Z,20.53
2022-08-30T03:53:34.354Z,20.53
2022-08-30T03:56:00.960Z,20.52
2022-08-30T03:58:27.447Z,20.52
2022-08-30T04:00:54.042Z,20.53
2022-08-30T04:03:25.857Z,20.50
2022-08-30T04:05:56.209Z,20.44
2022-08-30T04:08:23.294Z,20.42
2022-08-30T04:10:49.931Z,20.40
2022-08-30T04:13:22.648Z,20.38
2022-08-30T04:15:49.440Z,20.35
2022-08-30T04:18:16.814Z,20.33
2022-08-30T04:20:43.625Z,20.29
2022-08-30T04:23:14.668Z,20.25
2022-08-30T04:25:42.196Z,20.24
2022-08-30T04:28:09.148Z,20.22
2022-08-30T04:30:40.270Z,20.20
2022-08-30T04:33:07.246Z,20.18
2022-08-30T04:35:33.781Z,20.15
2022-08-30T04:38:00.368Z,20.12
2022-08-30T04:40:26.938Z,20.09
2022-08-30T04:42:54.486Z,20.08
2022-08-30T04:45:22.619Z,20.07
2022-08-30T04:47:49.182Z,20.06
2022-08-30T04:50:18.874Z,20.03
2022-08-30T04:52:45.841Z,20.03
2022-08-30T04:55:20.072Z,20.02
2022-08-30T04:57:46.946Z,20.02
2022-08-30T05:00:14.628Z,20.01
2022-08-30T05:02:42.292Z,20.04
2022-08-30T05:05:31.011Z,20.04
2022-08-30T05:07:57.781Z,20.03
2022-08-30T05:10:25.230Z,20.05
2022-08-30T05:12:51.757Z,20.06
2022-08-30T05:15:19.719Z,20.06
2022-08-30T05:17:46.234Z,20.06
2022-08-30T05:20:12.958Z,20.05
2022-08-30T05:22:41.683Z,20.04
2022-08-30T05:25:14.735Z,20.03
2022-08-30T05:27:41.338Z,20.03
2022-08-30T05:30:08.742Z,20.03
2022-08-30T05:32:35.552Z,20.06
2022-08-30T05:35:06.545Z,20.08
2022-08-30T05:37:33.262Z,20.10
2022-08-30T05:39:59.993Z,20.11
2022-08-30T05:42:26.692Z,20.09
2022-08-30T05:44:57.926Z,20.10
2022-08-30T05:47:24.518Z,20.11
2022-08-30T05:49:51.189Z,20.11
2022-08-30T05:52:18.269Z,20.13
2022-08-30T05:54:45.934Z,20.17
2022-08-30T05:57:12.463Z,20.20
2022-08-30T05:59:39.023Z,20.20
2022-08-30T06:02:07.248Z,20.20
2022-08-30T06:04:36.769Z,20.23
2022-08-30T06:07:03.685Z,20.24
2022-08-30T06:09:30.741Z,20.27
2022-08-30T06:11:58.088Z,20.29
2022-08-30T06:14:28.819Z,20.30
2022-08-30T06:16:55.309Z,20.35
2022-08-30T06:19:23.142Z,20.39
2022-08-30T06:21:51.221Z,20.42
2022-08-30T06:24:20.768Z,20.44
2022-08-30T06:26:51.357Z,20.46
2022-08-30T06:29:19.866Z,20.49
2022-08-30T06:31:47.425Z,20.52
2022-08-30T06:34:17.210Z,20.56
2022-08-30T06:36:43.765Z,20.60
2022-08-30T06:39:10.874Z,20.65
2022-08-30T06:41:41.456Z,20.71
2022-08-30T06:44:45.637Z,20.83
2022-08-30T06:47:12.450Z,20.92
2022-08-30T06:49:38.996Z,21.02
2022-08-30T06:52:07.363Z,21.12
2022-08-30T06:54:34.462Z,21.23
2022-08-30T06:57:01.898Z,21.35
2022-08-30T06:59:28.489Z,21.47
2022-08-30T07:01:55.934Z,21.58
2022-08-30T07:04:25.055Z,21.70
2022-08-30T07:06:52.033Z,21.84
2022-08-30T07:09:19.447Z,21.98
2022-08-30T07:11:49.651Z,22.12
2022-08-30T07:14:19.121Z,22.25
2022-08-30T07:16:47.081Z,22.38
2022-08-30T07:19:20.294Z,22.55
2022-08-30T07:21:49.516Z,22.71
2022-08-30T07:24:41.574Z,22.88
2022-08-30T07:27:08.146Z,23.03
2022-08-30T07:29:34.642Z,23.17
2022-08-30T07:32:01.174Z,23.34
2022-08-30T07:34:27.693Z,23.52
2022-08-30T07:36:54.201Z,23.68
2022-08-30T07:39:20.932Z,23.80
2022-08-30T07:41:48.647Z,23.89
2022-08-30T07:44:16.875Z,23.96
2022-08-30T07:46:43.674Z,24.03
2022-08-30T07:49:11.843Z,24.13
2022-08-30T07:51:39.746Z,24.22
2022-08-30T07:54:10.543Z,24.29
2022-08-30T07:56:37.331Z,24.44
2022-08-30T07:59:04.546Z,24.58
2022-08-30T08:01:31.590Z,24.75
2022-08-30T08:03:59.866Z,24.85
2022-08-30T08:06:27.648Z,24.96
2022-08-30T08:09:02.289Z,25.03
2022-08-30T08:11:33.448Z,25.08
2022-08-30T08:14:03.715Z,25.13
2022-08-30T08:16:33.679Z,25.20
2022-08-30T08:19:00.561Z,25.27
2022-08-30T08:21:27.818Z,25.37
2022-08-30T08:23:55.252Z,25.43
2022-08-30T08:26:22.421Z,25.46
2022-08-30T08:28:49.454Z,25.53
2022-08-30T08:31:18.759Z,25.55
2022-08-30T08:33:47.268Z,25.57
2022-08-30T08:36:14.830Z,25.63
2022-08-30T08:38:41.487Z,25.67
2022-08-30T08:41:19.798Z,25.72
2022-08-30T08:43:47.977Z,25.78
2022-08-30T08:46:45.322Z,25.81
2022-08-30T08:49:12.473Z,25.92
2022-08-30T08:51:58.218Z,26.03
2022-08-30T08:54:48.582Z,26.13
2022-08-30T08:57:16.588Z,26.22
2022-08-30T08:59:45.007Z,26.30
2022-08-30T09:02:27.528Z,26.34
2022-08-30T09:04:59.555Z,26.36
2022-08-30T09:07:39.785Z,26.37
2022-08-30T09:10:06.800Z,26.44
2022-08-30T09:12:33.538Z,26.54
2022-08-30T09:15:25.136Z,26.60
2022-08-30T09:17:56.381Z,26.68
2022-08-30T09:20:34.886Z,26.77
2022-08-30T09:23:30.486Z,26.89
2022-08-30T09:26:01.671Z,27.00
2022-08-30T09:28:35.160Z,27.10
2022-08-30T09:31:21.282Z,27.18
2022-08-30T09:34:05.756Z,27.24
2022-08-30T09:36:43.947Z,27.36
2022-08-30T09:39:27.606Z,27.48
2022-08-30T09:41:55.639Z,27.61
2022-08-30T09:44:31.534Z,27.71
2022-08-30T09:47:01.145Z,27.87
2022-08-30T09:49:35.622Z,27.99
2022-08-30T09:52:12.044Z,28.09
2022-08-30T09:55:02.062Z,28.22
2022-08-30T09:57:47.606Z,28.33
2022-08-30T10:00:21.404Z,28.38
2022-08-30T10:03:07.505Z,28.43
2022-08-30T10:06:10.816Z,28.49
2022-08-30T10:08:56.170Z,28.55
2022-08-30T10:11:32.018Z,28.54
2022-08-30T10:14:18.720Z,28.52
2022-08-30T10:16:53.488Z,28.53
2022-08-30T10:19:39.797Z,28.54
2022-08-30T10:22:24.983Z,28.60
2022-08-30T10:24:58.027Z,28.60
2022-08-30T10:27:38.625Z,28.66
2022-08-30T10:30:07.911Z,28.70
2022-08-30T10:32:43.204Z,28.70
2022-08-30T10:35:19.595Z,28.70
2022-08-30T10:37:58.265Z,28.74
2022-08-30T10:40:52.758Z,28.79
2022-08-30T10:43:52.771Z,28.93
2022-08-30T10:46:25.270Z,29.06
2022-08-30T10:48:53.905Z,29.19
2022-08-30T10:51:29.076Z,29.24
2022-08-30T10:54:13.984Z,29.37
2022-08-30T10:56:50.583Z,29.53
2022-08-30T10:59:19.266Z,29.64
2022-08-30T11:02:03.967Z,29.74
2022-08-30T11:05:00.694Z,29.77
2022-08-30T11:07:33.514Z,29.77
2022-08-30T11:10:09.076Z,29.80
2022-08-30T11:12:51.813Z,29.85
2022-08-30T11:15:22.415Z,29.93
2022-08-30T11:18:01.315Z,29.99
2022-08-30T11:20:36.752Z,30.12
2022-08-30T11:23:33.818Z,30.22
2022-08-30T11:26:05.380Z,30.38
2022-08-30T11:28:38.386Z,30.51
2022-08-30T11:31:20.466Z,30.55
2022-08-30T11:34:12.386Z,30.62
2022-08-30T11:39:52.038Z,30.80
2022-08-30T11:42:38.717Z,30.83
2022-08-30T11:45:22.006Z,30.87
2022-08-30T11:48:05.854Z,30.93
2022-08-30T11:50:53.987Z,30.95
2022-08-30T11:53:37.191Z,30.96
2022-08-30T11:56:13.081Z,30.98
2022-08-30T11:58:48.671Z,31.05
2022-08-30T12:01:50.191Z,31.09
2022-08-30T12:04:37.765Z,31.09
2022-08-30T12:07:08.185Z,31.08
2022-08-30T12:09:35.150Z,31.06
2022-08-30T12:12:12.435Z,31.05
2022-08-30T12:14:55.000Z,31.10
2022-08-30T12:18:15.352Z,31.14
2022-08-30T12:20:48.344Z,31.19
2022-08-30T12:23:44.429Z,31.26
2022-08-30T12:26:34.482Z,31.36
2022-08-30T12:29:10.129Z,31.41
2022-08-30T12:31:53.757Z,31.39
2022-08-30T12:34:26.320Z,31.36
2022-08-30T12:36:58.400Z,31.31
2022-08-30T12:39:31.853Z,31.30
2022-08-30T12:42:22.322Z,31.29
2022-08-30T12:44:52.258Z,31.33
2022-08-30T12:47:25.639Z,31.36
2022-08-30T12:49:53.928Z,31.40
2022-08-30T12:52:26.329Z,31.49
2022-08-30T12:54:55.133Z,31.52
2022-08-30T12:57:39.203Z,31.57
2022-08-30T13:00:08.547Z,31.60
2022-08-30T13:02:52.601Z,31.64
2022-08-30T13:05:45.575Z,31.69
2022-08-30T13:08:37.451Z,31.73
2022-08-30T13:11:24.808Z,31.74
2022-08-30T13:14:30.569Z,31.74
2022-08-30T13:17:20.433Z,31.73
2022-08-30T13:20:05.841Z,31.67
2022-08-30T13:22:59.516Z,31.63
2022-08-30T13:25:28.861Z,31.63
2022-08-30T13:27:55.430Z,31.63
2022-08-30T13:30:22.289Z,31.67
2022-08-30T13:32:50.084Z,31.70
2022-08-30T13:35:16.871Z,31.70
2022-08-30T13:37:50.526Z,31.66
2022-08-30T13:40:20.998Z,31.59
2022-08-30T13:42:48.569Z,31.49
2022-08-30T13:48:03.926Z,31.44
2022-08-30T13:50:30.849Z,31.50
2022-08-30T13:52:57.674Z,31.56
2022-08-30T13:55:24.658Z,31.60
2022-08-30T13:57:55.296Z,31.65
2022-08-30T14:00:24.937Z,31.66
2022-08-30T14:02:57.764Z,31.64
2022-08-30T14:06:09.917Z,31.58
2022-08-30T14:11:18.575Z,31.61
2022-08-30T14:16:39.455Z,31.75
2022-08-30T14:19:06.579Z,31.82
2022-08-30T14:21:35.494Z,31.89
2022-08-30T14:24:06.777Z,31.90
2022-08-30T14:26:40.716Z,31.90
2022-08-30T14:29:10.496Z,31.89
2022-08-30T14:31:39.033Z,31.91
2022-08-30T14:34:08.574Z,31.88
2022-08-30T14:36:36.861Z,31.86
2022-08-30T14:39:09.573Z,31.81
2022-08-30T14:41:43.709Z,31.83
2022-08-30T14:44:16.973Z,31.80
2022-08-30T14:46:44.098Z,31.80
2022-08-30T14:49:12.476Z,31.80
2022-08-30T14:51:39.888Z,31.80
2022-08-30T14:54:08.997Z,31.70
2022-08-30T14:56:37.733Z,31.64
2022-08-30T14:59:04.453Z,31.61
2022-08-30T15:01:31.736Z,31.63
2022-08-30T15:04:07.410Z,31.60
2022-08-30T15:06:35.885Z,31.57
2022-08-30T15:09:03.595Z,31.47
2022-08-30T15:11:30.537Z,31.35
2022-08-30T15:14:05.876Z,31.19
2022-08-30T15:16:35.768Z,31.06
2022-08-30T15:19:04.212Z,30.93
2022-08-30T15:21:34.561Z,30.85
2022-08-30T15:24:09.118Z,30.83
2022-08-30T15:26:36.675Z,30.81
2022-08-30T15:29:03.864Z,30.74
2022-08-30T15:31:31.830Z,30.70
2022-08-30T15:34:01.721Z,30.64
2022-08-30T15:36:29.239Z,30.60
2022-08-30T15:38:57.189Z,30.55
2022-08-30T15:41:24.466Z,30.52
2022-08-30T15:43:57.241Z,30.47
2022-08-30T15:46:29.944Z,30.43
2022-08-30T15:49:00.971Z,30.36
2022-08-30T15:51:28.653Z,30.30
2022-08-30T15:53:59.136Z,30.23
2022-08-30T15:56:26.055Z,30.17
2022-08-30T15:58:53.167Z,30.10
2022-08-30T16:01:30.087Z,30.05
2022-08-30T16:04:00.804Z,29.99
2022-08-30T16:06:34.741Z,29.90
2022-08-30T16:09:01.615Z,29.81
2022-08-30T16:11:28.322Z,29.73
2022-08-30T16:13:56.965Z,29.69
2022-08-30T16:16:24.678Z,29.65
2022-08-30T16:18:53.710Z,29.59
2022-08-30T16:21:29.572Z,29.51
2022-08-30T16:24:01.590Z,29.46
2022-08-30T16:26:29.712Z,29.40
2022-08-30T16:28:56.939Z,29.35
2022-08-30T16:31:26.096Z,29.34
2022-08-30T16:34:02.795Z,29.31
2022-08-30T16:36:32.271Z,29.26
2022-08-30T16:38:59.269Z,29.22
2022-08-30T16:41:26.182Z,29.18
2022-08-30T16:43:53.868Z,29.13
2022-08-30T16:46:26.915Z,29.08
2022-08-30T16:48:57.021Z,29.03
2022-08-30T16:51:26.249Z,28.99
2022-08-30T16:53:58.635Z,28.95
2022-08-30T16:56:27.175Z,28.94
2022-08-30T16:59:01.376Z,28.92
2022-08-30T17:01:30.721Z,28.88
2022-08-30T17:03:58.630Z,28.83
2022-08-30T17:06:25.152Z,28.80
2022-08-30T17:08:52.565Z,28.76
2022-08-30T17:11:23.770Z,28.73
2022-08-30T17:13:54.998Z,28.69
2022-08-30T17:16:27.896Z,28.68
2022-08-30T17:18:59.595Z,28.66
2022-08-30T17:21:28.760Z,28.64
2022-08-30T17:23:58.458Z,28.64
2022-08-30T17:26:32.869Z,28.61
2022-08-30T17:29:00.107Z,28.60
2022-08-30T17:31:29.087Z,28.58
2022-08-30T17:34:02.815Z,28.57
2022-08-30T17:36:31.791Z,28.54
2022-08-30T17:38:58.350Z,28.50
2022-08-30T17:41:25.248Z,28.47
2022-08-30T17:43:55.741Z,28.41
2022-08-30T17:46:22.601Z,28.39
2022-08-30T17:48:57.977Z,28.38
2022-08-30T17:51:29.426Z,28.36
2022-08-30T17:54:00.955Z,28.31
2022-08-30T17:56:34.362Z,28.29
2022-08-30T17:59:04.781Z,28.21
2022-08-30T18:01:31.738Z,28.13
2022-08-30T18:04:05.929Z,28.03
2022-08-30T18:06:33.570Z,27.97
2022-08-30T18:09:01.410Z,27.90
2022-08-30T18:11:28.134Z,27.85
2022-08-30T18:13:54.633Z,27.80
2022-08-30T18:16:26.406Z,27.77
2022-08-30T18:18:57.265Z,27.71
2022-08-30T18:21:25.298Z,27.68
2022-08-30T18:23:53.431Z,27.62
2022-08-30T18:26:24.138Z,27.53
2022-08-30T18:28:51.411Z,27.45
2022-08-30T18:31:18.198Z,27.36
2022-08-30T18:33:49.225Z,27.28
2022-08-30T18:36:17.010Z,27.20
2022-08-30T18:38:44.394Z,27.14
2022-08-30T18:41:15.916Z,27.08
2022-08-30T18:43:46.857Z,27.02
2022-08-30T18:46:16.139Z,26.98
2022-08-30T18:48:46.107Z,26.95
2022-08-30T18:51:19.089Z,26.94
2022-08-30T18:53:49.879Z,26.92
2022-08-30T18:56:17.036Z,26.89
2022-08-30T18:58:44.837Z,26.84
2022-08-30T19:01:12.830Z,26.79
2022-08-30T19:03:43.746Z,26.75
2022-08-30T19:06:11.911Z,26.69
2022-08-30T19:08:40.227Z,26.62
2022-08-30T19:11:07.759Z,26.56
2022-08-30T19:13:46.712Z,26.48
2022-08-30T19:16:13.358Z,26.41
2022-08-30T19:18:40.356Z,26.33
2022-08-30T19:21:07.224Z,26.24
2022-08-30T19:23:43.393Z,26.18
2022-08-30T19:26:10.938Z,26.12
2022-08-30T19:28:37.888Z,26.06
2022-08-30T19:31:04.694Z,25.98
2022-08-30T19:33:33.873Z,25.91
2022-08-30T19:36:00.609Z,25.85
2022-08-30T19:38:27.246Z,25.80
2022-08-30T19:41:00.014Z,25.74
2022-08-30T19:43:28.217Z,25.70
2022-08-30T19:45:59.835Z,25.62
2022-08-30T19:48:32.280Z,25.55
2022-08-30T19:50:59.857Z,25.50
2022-08-30T19:53:28.429Z,25.44
2022-08-30T19:55:54.937Z,25.41
2022-08-30T19:58:21.426Z,25.39
2022-08-30T20:01:00.888Z,25.36
2022-08-30T20:03:38.081Z,25.34
2022-08-30T20:06:07.786Z,25.30
2022-08-30T20:08:35.634Z,25.28
2022-08-30T20:11:02.344Z,25.25
2022-08-30T20:13:34.170Z,25.25
2022-08-30T20:16:01.261Z,25.24
2022-08-30T20:18:28.860Z,25.23
2022-08-30T20:20:55.441Z,25.22
2022-08-30T20:23:25.608Z,25.21
2022-08-30T20:25:54.371Z,25.21
2022-08-30T20:28:21.710Z,25.16
2022-08-30T20:30:49.109Z,25.13
2022-08-30T20:33:18.574Z,25.09
2022-08-30T20:35:48.973Z,25.06
2022-08-30T20:38:25.401Z,25.03
2022-08-30T20:40:59.306Z,25.00
2022-08-30T20:43:30.539Z,24.96
2022-08-30T20:45:57.318Z,24.93
2022-08-30T20:48:27.004Z,24.86
2022-08-30T20:50:53.582Z,24.82
2022-08-30T20:53:24.414Z,24.81
2022-08-30T20:55:50.906Z,24.80
2022-08-30T20:58:17.707Z,24.77
2022-08-30T21:00:50.078Z,24.71
2022-08-30T21:03:27.412Z,24.66
2022-08-30T21:05:55.122Z,24.63
2022-08-30T21:08:21.737Z,24.55
2022-08-30T21:10:48.266Z,24.52
2022-08-30T21:13:16.465Z,24.49
2022-08-30T21:15:46.296Z,24.46
2022-08-30T21:18:16.060Z,24.41
2022-08-30T21:20:42.681Z,24.37
2022-08-30T21:23:12.502Z,24.33
2022-08-30T21:25:40.767Z,24.29
2022-08-30T21:28:07.599Z,24.23
2022-08-30T21:30:35.613Z,24.18
2022-08-30T21:33:04.354Z,24.15
2022-08-30T21:35:50.017Z,24.11
2022-08-30T21:38:17.389Z,24.07
2022-08-30T21:40:44.374Z,24.04
2022-08-30T21:43:22.773Z,24.01
2022-08-30T21:45:51.233Z,23.96
2022-08-30T21:48:18.054Z,23.92
2022-08-30T21:50:46.418Z,23.90
2022-08-30T21:53:17.106Z,23.87
2022-08-30T21:55:43.945Z,23.84
2022-08-30T21:58:11.058Z,23.81
2022-08-30T22:00:37.615Z,23.76
2022-08-30T22:03:04.339Z,23.74
2022-08-30T22:05:31.249Z,23.71
2022-08-30T22:08:01.037Z,23.69
2022-08-30T22:10:32.409Z,23.69
2022-08-30T22:13:00.372Z,23.70
2022-08-30T22:15:28.175Z,23.69
2022-08-30T22:17:58.432Z,23.67
2022-08-30T22:20:31.335Z,23.66
2022-08-30T22:22:58.687Z,23.66
2022-08-30T22:25:26.621Z,23.63
2022-08-30T22:27:53.145Z,23.60
2022-08-30T22:30:19.659Z,23.56
2022-08-30T22:32:46.319Z,23.53
2022-08-30T22:35:13.081Z,23.51
2022-08-30T22:37:41.665Z,23.50
2022-08-30T22:40:14.180Z,23.51
2022-08-30T22:42:40.763Z,23.48
2022-08-30T22:45:15.062Z,23.48
2022-08-30T22:47:41.648Z,23.48
2022-08-30T22:50:10.346Z,23.48
2022-08-30T22:52:36.889Z,23.45
2022-08-30T22:55:04.249Z,23.42
2022-08-30T22:57:31.188Z,23.38
2022-08-30T22:59:57.665Z,23.35
2022-08-30T23:02:24.843Z,23.31
2022-08-30T23:04:55.870Z,23.27
2022-08-30T23:07:22.434Z,23.28
2022-08-30T23:09:48.910Z,23.30
2022-08-30T23:12:15.394Z,23.29
2022-08-30T23:14:42.269Z,23.28
2022-08-30T23:17:09.509Z,23.29
2022-08-30T23:19:35.984Z,23.27
2022-08-30T23:22:02.483Z,23.25
2022-08-30T23:24:56.621Z,23.22
2022-08-30T23:27:43.325Z,23.20
2022-08-30T23:30:29.296Z,23.17
2022-08-30T23:33:14.966Z,23.15
2022-08-30T23:36:00.181Z,23.14
2022-08-30T23:38:45.228Z,23.18
2022-08-30T23:41:34.129Z,23.14
2022-08-30T23:44:20.878Z,23.09
2022-08-30T23:47:06.223Z,23.04
2022-08-30T23:49:51.273Z,22.99
2022-08-30T23:52:36.377Z,22.95
2022-08-30T23:55:24.099Z,22.93
2022-08-30T23:58:08.851Z,22.91
